createdAt,value
2017-07-20T00:00:04.790Z,0.0
2017-07-20T00:00:45.915Z,0.0
2017-07-20T00:01:26.138Z,0.0
2017-07-20T00:02:06.465Z,0.0
2017-07-20T00:02:46.992Z,0.0
2017-07-20T00:03:26.712Z,0.0
2017-07-20T00:04:06.941Z,0.0
2017-07-20T00:04:47.360Z,0.0
2017-07-20T00:05:27.191Z,0.0
2017-07-20T00:06:07.915Z,0.0
2017-07-20T00:06:48.148Z,0.0
2017-07-20T00:07:28.374Z,0.0
2017-07-20T00:08:08.591Z,2.4
2017-07-20T00:08:48.917Z,1.6
2017-07-20T00:09:29.040Z,0.0
2017-07-20T00:10:08.867Z,0.0
2017-07-20T00:10:49.084Z,1.6
2017-07-20T00:11:29.216Z,0.0
2017-07-20T00:12:09.554Z,0.8
2017-07-20T00:12:50.378Z,0.0
2017-07-20T00:13:30.314Z,0.0
2017-07-20T00:14:10.336Z,0.0
2017-07-20T00:14:50.174Z,0.0
2017-07-20T00:15:30.193Z,0.0
2017-07-20T00:16:10.121Z,0.0
2017-07-20T00:16:50.347Z,0.0
2017-07-20T00:17:30.574Z,0.0
2017-07-20T00:18:10.914Z,0.0
2017-07-20T00:18:50.920Z,0.0
2017-07-20T00:19:31.075Z,0.0
2017-07-20T00:20:11.699Z,0.0
2017-07-20T00:20:51.631Z,0.0
2017-07-20T00:21:32.060Z,0.0
2017-07-20T00:22:11.982Z,0.0
2017-07-20T00:22:51.913Z,0.0
2017-07-20T00:23:31.943Z,0.0
2017-07-20T00:24:12.585Z,0.0
2017-07-20T00:24:52.812Z,0.0
2017-07-20T00:25:32.943Z,0.8
2017-07-20T00:26:13.573Z,1.6
2017-07-20T00:26:53.717Z,0.8
2017-07-20T00:27:34.340Z,1.6
2017-07-20T00:28:14.862Z,0.0
2017-07-20T00:28:54.899Z,0.0
2017-07-20T00:29:35.424Z,0.0
2017-07-20T00:30:15.554Z,0.0
2017-07-20T00:30:55.686Z,0.0
2017-07-20T00:31:35.714Z,0.8
2017-07-20T00:32:16.430Z,0.0
2017-07-20T00:32:56.959Z,0.0
2017-07-20T00:33:37.188Z,2.4
2017-07-20T00:34:17.812Z,1.6
2017-07-20T00:34:57.735Z,0.0
2017-07-20T00:35:38.070Z,2.4
2017-07-20T00:36:18.203Z,3.2
2017-07-20T00:36:58.629Z,2.4
2017-07-20T00:37:39.053Z,3.2
2017-07-20T00:38:19.383Z,0.8
2017-07-20T00:38:59.505Z,0.0
2017-07-20T00:39:39.738Z,0.0
2017-07-20T00:40:20.166Z,0.0
2017-07-20T00:41:00.594Z,0.0
2017-07-20T00:41:40.933Z,0.0
2017-07-20T00:42:21.359Z,0.0
2017-07-20T00:43:01.695Z,0.0
2017-07-20T00:43:42.020Z,0.0
2017-07-20T00:44:22.254Z,0.0
2017-07-20T00:45:02.688Z,0.0
2017-07-20T00:45:42.617Z,0.0
2017-07-20T00:46:22.852Z,1.6
2017-07-20T00:47:03.376Z,0.0
2017-07-20T00:47:43.508Z,0.0
2017-07-20T00:48:24.331Z,0.0
2017-07-20T00:49:04.865Z,0.0
2017-07-20T00:49:45.292Z,0.0
2017-07-20T00:50:25.415Z,0.8
2017-07-20T00:51:06.251Z,0.0
2017-07-20T00:51:46.875Z,0.0
2017-07-20T00:52:27.006Z,0.0
2017-07-20T00:53:07.429Z,0.0
2017-07-20T00:53:47.682Z,0.0
2017-07-20T00:54:27.906Z,0.8
2017-07-20T00:55:08.140Z,0.8
2017-07-20T00:55:48.267Z,0.8
2017-07-20T00:56:28.690Z,0.8
2017-07-20T00:57:09.021Z,0.0
2017-07-20T00:57:49.247Z,1.6
2017-07-20T00:58:29.678Z,0.8
2017-07-20T00:59:09.801Z,0.0
2017-07-20T00:59:49.824Z,0.8
2017-07-20T01:00:30.052Z,0.0
2017-07-20T01:01:10.280Z,0.0
2017-07-20T01:01:50.405Z,0.0
2017-07-20T01:02:30.624Z,0.0
2017-07-20T01:03:10.850Z,0.0
2017-07-20T01:03:50.879Z,0.0
2017-07-20T01:04:31.013Z,0.0
2017-07-20T01:05:11.044Z,1.6
2017-07-20T01:05:51.088Z,1.6
2017-07-20T01:06:30.999Z,0.8
2017-07-20T01:07:11.226Z,0.0
2017-07-20T01:07:51.759Z,1.6
2017-07-20T01:08:32.290Z,2.4
2017-07-20T01:09:12.536Z,1.6
2017-07-20T01:09:52.957Z,1.6
2017-07-20T01:10:33.188Z,1.6
2017-07-20T01:11:13.319Z,1.6
2017-07-20T01:11:53.753Z,0.8
2017-07-20T01:12:34.082Z,1.6
2017-07-20T01:13:14.613Z,4.8
2017-07-20T01:13:54.437Z,3.2
2017-07-20T01:14:34.165Z,2.4
2017-07-20T01:15:14.590Z,2.4
2017-07-20T01:15:55.313Z,4.0
2017-07-20T01:16:35.454Z,2.4
2017-07-20T01:17:15.277Z,0.8
2017-07-20T01:17:55.407Z,4.8
2017-07-20T01:18:35.849Z,4.8
2017-07-20T01:19:16.174Z,3.2
2017-07-20T01:19:56.803Z,4.0
2017-07-20T01:20:37.440Z,2.4
2017-07-20T01:21:17.662Z,1.6
2017-07-20T01:21:57.697Z,4.0
2017-07-20T01:22:37.927Z,3.2
2017-07-20T01:23:18.079Z,1.6
2017-07-20T01:23:58.196Z,2.4
2017-07-20T01:24:38.324Z,0.8
2017-07-20T01:25:20.868Z,3.2
2017-07-20T01:26:00.895Z,2.4
2017-07-20T01:26:41.410Z,2.4
2017-07-20T01:27:21.831Z,2.4
2017-07-20T01:28:02.362Z,2.4
2017-07-20T01:28:42.397Z,2.4
2017-07-20T01:29:22.934Z,2.4
2017-07-20T01:30:03.266Z,0.8
2017-07-20T01:30:43.791Z,3.2
2017-07-20T01:31:24.224Z,3.2
2017-07-20T01:32:04.661Z,2.4
2017-07-20T01:32:44.793Z,2.4
2017-07-20T01:33:25.425Z,1.6
2017-07-20T01:34:05.451Z,1.6
2017-07-20T01:34:45.190Z,2.4
2017-07-20T01:35:25.529Z,8.0
2017-07-20T01:36:05.963Z,3.2
2017-07-20T01:36:46.095Z,4.0
2017-07-20T01:37:26.631Z,4.0
2017-07-20T01:38:06.558Z,7.2
2017-07-20T01:38:46.293Z,4.8
2017-07-20T01:39:26.422Z,4.8
2017-07-20T01:40:06.449Z,4.8
2017-07-20T01:40:46.783Z,4.0
2017-07-20T01:41:27.608Z,2.4
2017-07-20T01:42:07.843Z,4.8
2017-07-20T01:42:47.909Z,4.0
2017-07-20T01:43:27.932Z,1.6
2017-07-20T01:44:08.573Z,4.8
2017-07-20T01:44:48.787Z,2.4
2017-07-20T01:45:28.814Z,4.8
2017-07-20T01:46:09.044Z,3.2
2017-07-20T01:46:48.786Z,3.2
2017-07-20T01:47:29.634Z,3.2
2017-07-20T01:48:09.767Z,1.6
2017-07-20T01:48:50.205Z,4.0
2017-07-20T01:49:30.339Z,4.0
2017-07-20T01:50:10.470Z,5.6
2017-07-20T01:50:50.906Z,4.8
2017-07-20T01:51:31.442Z,1.6
2017-07-20T01:52:11.774Z,1.6
2017-07-20T01:52:52.201Z,2.4
2017-07-20T01:53:32.337Z,3.2
2017-07-20T01:54:12.274Z,0.8
2017-07-20T01:54:52.698Z,1.6
2017-07-20T01:55:33.130Z,4.0
2017-07-20T01:56:13.254Z,2.4
2017-07-20T01:56:53.886Z,1.6
2017-07-20T01:57:34.218Z,4.8
2017-07-20T01:58:14.258Z,5.6
2017-07-20T01:58:54.687Z,5.6
2017-07-20T01:59:34.710Z,7.2
2017-07-20T02:00:14.933Z,6.4
2017-07-20T02:00:55.361Z,4.0
2017-07-20T02:01:35.597Z,8.0
2017-07-20T02:02:15.235Z,5.6
2017-07-20T02:02:55.675Z,5.6
2017-07-20T02:03:35.806Z,7.2
2017-07-20T02:04:15.838Z,6.4
2017-07-20T02:04:56.330Z,8.0
2017-07-20T02:05:36.391Z,8.0
2017-07-20T02:06:16.319Z,9.6
2017-07-20T02:06:56.542Z,9.6
2017-07-20T02:07:36.985Z,9.6
2017-07-20T02:08:17.507Z,4.0
2017-07-20T02:08:57.347Z,8.8
2017-07-20T02:09:37.870Z,8.0
2017-07-20T02:10:17.896Z,4.0
2017-07-20T02:10:58.026Z,4.0
2017-07-20T02:11:38.355Z,1.6
2017-07-20T02:12:18.591Z,6.4
2017-07-20T02:12:58.613Z,1.6
2017-07-20T02:13:38.551Z,4.8
2017-07-20T02:14:18.477Z,3.2
2017-07-20T02:14:58.706Z,2.4
2017-07-20T02:15:38.740Z,1.6
2017-07-20T02:16:19.578Z,2.4
2017-07-20T02:17:00.015Z,3.2
2017-07-20T02:17:40.440Z,0.0
2017-07-20T02:18:20.679Z,1.6
2017-07-20T02:19:01.207Z,1.6
2017-07-20T02:19:41.245Z,0.8
2017-07-20T02:20:21.877Z,3.2
2017-07-20T02:21:02.209Z,1.6
2017-07-20T02:21:42.248Z,0.8
2017-07-20T02:22:21.977Z,1.6
2017-07-20T02:23:03.145Z,0.0
2017-07-20T02:23:43.373Z,1.6
2017-07-20T02:24:23.103Z,3.2
2017-07-20T02:25:03.630Z,1.6
2017-07-20T02:25:43.774Z,2.4
2017-07-20T02:26:23.500Z,2.4
2017-07-20T02:27:03.629Z,4.0
2017-07-20T02:27:43.566Z,0.8
2017-07-20T02:28:23.795Z,3.2
2017-07-20T02:29:03.631Z,1.6
2017-07-20T02:29:43.660Z,1.6
2017-07-20T02:30:23.706Z,4.0
2017-07-20T02:31:03.944Z,2.4
2017-07-20T02:31:44.080Z,4.0
2017-07-20T02:32:24.304Z,1.6
2017-07-20T02:33:04.337Z,3.2
2017-07-20T02:33:44.274Z,0.8
2017-07-20T02:34:24.806Z,4.8
2017-07-20T02:35:05.133Z,4.0
2017-07-20T02:35:45.570Z,4.0
2017-07-20T02:36:26.298Z,3.2
2017-07-20T02:37:06.433Z,3.2
2017-07-20T02:37:46.573Z,1.6
2017-07-20T02:38:26.799Z,4.0
2017-07-20T02:39:06.929Z,4.0
2017-07-20T02:39:47.158Z,1.6
2017-07-20T02:40:27.394Z,4.0
2017-07-20T02:41:07.630Z,2.4
2017-07-20T02:41:48.168Z,3.2
2017-07-20T02:42:28.398Z,4.0
2017-07-20T02:43:08.338Z,2.4
2017-07-20T02:43:48.374Z,3.2
2017-07-20T02:44:28.898Z,2.4
2017-07-20T02:45:08.828Z,1.6
2017-07-20T02:45:49.166Z,2.4
2017-07-20T02:46:29.496Z,1.6
2017-07-20T02:47:09.425Z,2.4
2017-07-20T02:47:49.659Z,2.4
2017-07-20T02:48:29.498Z,2.4
2017-07-20T02:49:09.422Z,4.0
2017-07-20T02:49:49.860Z,2.4
2017-07-20T02:50:29.787Z,1.6
2017-07-20T02:51:10.020Z,3.2
2017-07-20T02:51:50.574Z,2.4
2017-07-20T02:52:30.710Z,1.6
2017-07-20T02:53:11.053Z,4.0
2017-07-20T02:53:51.079Z,3.2
2017-07-20T02:54:31.211Z,0.8
2017-07-20T02:55:11.340Z,2.4
2017-07-20T02:55:51.461Z,3.2
2017-07-20T02:56:31.505Z,3.2
2017-07-20T02:57:11.830Z,2.4
2017-07-20T02:57:52.059Z,4.8
2017-07-20T02:58:32.686Z,2.4
2017-07-20T02:59:12.727Z,4.8
2017-07-20T02:59:53.053Z,5.6
2017-07-20T03:00:33.581Z,4.8
2017-07-20T03:01:13.809Z,3.2
2017-07-20T03:01:54.066Z,3.2
2017-07-20T03:02:34.506Z,4.0
2017-07-20T03:03:14.640Z,3.2
2017-07-20T03:03:54.689Z,2.4
2017-07-20T03:04:35.027Z,3.2
2017-07-20T03:05:15.165Z,2.4
2017-07-20T03:05:55.503Z,3.2
2017-07-20T03:06:35.436Z,2.4
2017-07-20T03:07:15.576Z,2.4
2017-07-20T03:07:55.713Z,3.2
2017-07-20T03:08:36.153Z,2.4
2017-07-20T03:09:16.318Z,2.4
2017-07-20T03:09:56.655Z,4.8
2017-07-20T03:10:36.584Z,2.4
2017-07-20T03:11:16.318Z,4.0
2017-07-20T03:11:56.555Z,2.4
2017-07-20T03:12:36.893Z,1.6
2017-07-20T03:13:17.233Z,4.0
2017-07-20T03:13:57.166Z,2.4
2017-07-20T03:14:37.309Z,3.2
2017-07-20T03:15:17.546Z,3.2
2017-07-20T03:15:57.684Z,4.0
2017-07-20T03:16:37.925Z,0.8
2017-07-20T03:17:18.154Z,1.6
2017-07-20T03:17:58.496Z,0.8
2017-07-20T03:18:38.938Z,4.0
2017-07-20T03:19:19.177Z,4.8
2017-07-20T03:19:59.509Z,1.6
2017-07-20T03:20:39.547Z,3.2
2017-07-20T03:21:19.687Z,3.2
2017-07-20T03:22:00.120Z,2.4
2017-07-20T03:22:40.259Z,2.4
2017-07-20T03:23:20.606Z,4.0
2017-07-20T03:24:00.643Z,4.8
2017-07-20T03:24:40.708Z,4.8
2017-07-20T03:25:20.848Z,2.4
2017-07-20T03:26:00.681Z,2.4
2017-07-20T03:26:40.916Z,0.8
2017-07-20T03:27:21.483Z,0.0
2017-07-20T03:28:01.714Z,0.0
2017-07-20T03:28:42.169Z,2.4
2017-07-20T03:29:22.294Z,0.8
2017-07-20T03:30:02.334Z,0.0
2017-07-20T03:30:42.166Z,0.0
2017-07-20T03:31:22.211Z,2.4
2017-07-20T03:32:02.451Z,4.0
2017-07-20T03:32:42.391Z,2.4
2017-07-20T03:33:23.322Z,2.4
2017-07-20T03:34:03.663Z,2.4
2017-07-20T03:34:43.705Z,4.8
2017-07-20T03:35:24.242Z,4.8
2017-07-20T03:36:04.285Z,4.8
2017-07-20T03:36:44.750Z,1.6
2017-07-20T03:37:25.480Z,0.8
2017-07-20T03:38:05.422Z,1.6
2017-07-20T03:38:45.370Z,2.4
2017-07-20T03:39:25.799Z,4.0
2017-07-20T03:40:06.232Z,3.2
2017-07-20T03:40:46.870Z,3.2
2017-07-20T03:41:27.110Z,4.0
2017-07-20T03:42:07.046Z,2.4
2017-07-20T03:42:47.278Z,1.6
2017-07-20T03:43:27.514Z,2.4
2017-07-20T03:44:07.751Z,2.4
2017-07-20T03:44:48.284Z,2.4
2017-07-20T03:45:28.219Z,2.4
2017-07-20T03:46:08.855Z,2.4
2017-07-20T03:46:48.994Z,2.4
2017-07-20T03:47:29.227Z,4.8
2017-07-20T03:48:09.267Z,5.6
2017-07-20T03:48:49.800Z,6.4
2017-07-20T03:49:29.846Z,3.2
2017-07-20T03:50:10.084Z,4.8
2017-07-20T03:50:50.522Z,4.8
2017-07-20T03:51:30.257Z,1.6
2017-07-20T03:52:10.296Z,3.2
2017-07-20T03:52:50.538Z,0.8
2017-07-20T03:53:30.479Z,4.0
2017-07-20T03:54:11.008Z,1.6
2017-07-20T03:54:51.149Z,2.4
2017-07-20T03:55:31.487Z,5.6
2017-07-20T03:56:11.828Z,4.0
2017-07-20T03:56:52.064Z,4.0
2017-07-20T03:57:32.805Z,6.4
2017-07-20T03:58:13.045Z,6.4
2017-07-20T03:58:53.087Z,6.4
2017-07-20T03:59:33.622Z,3.2
2017-07-20T04:00:13.965Z,4.0
2017-07-20T04:00:54.403Z,5.6
2017-07-20T04:01:34.444Z,4.8
2017-07-20T04:02:14.577Z,2.4
2017-07-20T04:02:54.921Z,2.4
2017-07-20T04:03:35.262Z,3.2
2017-07-20T04:04:15.710Z,7.2
2017-07-20T04:04:56.155Z,5.6
2017-07-20T04:05:36.288Z,4.0
2017-07-20T04:06:16.432Z,5.6
2017-07-20T04:06:56.968Z,5.6
2017-07-20T04:07:37.011Z,6.4
2017-07-20T04:08:17.446Z,8.0
2017-07-20T04:08:57.687Z,6.4
2017-07-20T04:09:37.730Z,6.4
2017-07-20T04:10:17.968Z,7.2
2017-07-20T04:10:58.303Z,4.0
2017-07-20T04:11:38.347Z,6.4
2017-07-20T04:12:18.588Z,4.8
2017-07-20T04:12:59.233Z,6.4
2017-07-20T04:13:39.678Z,8.0
2017-07-20T04:14:20.004Z,7.2
2017-07-20T04:15:00.642Z,6.4
2017-07-20T04:15:40.986Z,4.8
2017-07-20T04:16:21.432Z,8.8
2017-07-20T04:17:01.674Z,4.8
2017-07-20T04:17:41.914Z,8.8
2017-07-20T04:18:22.156Z,9.6
2017-07-20T04:19:02.498Z,6.4
2017-07-20T04:19:43.139Z,8.0
2017-07-20T04:20:23.506Z,5.6
2017-07-20T04:21:04.118Z,3.2
2017-07-20T04:21:44.353Z,5.6
2017-07-20T04:22:24.800Z,6.4
2017-07-20T04:23:05.341Z,6.4
2017-07-20T04:23:45.588Z,6.4
2017-07-20T04:24:25.626Z,6.4
2017-07-20T04:25:05.868Z,6.4
2017-07-20T04:25:46.224Z,5.6
2017-07-20T04:26:26.668Z,9.6
2017-07-20T04:27:06.711Z,10.4
2017-07-20T04:27:46.851Z,10.4
2017-07-20T04:28:26.699Z,12.0
2017-07-20T04:29:07.230Z,9.6
2017-07-20T04:29:47.374Z,9.6
2017-07-20T04:30:27.518Z,7.2
2017-07-20T04:31:08.060Z,8.8
2017-07-20T04:31:48.500Z,11.2
2017-07-20T04:32:29.047Z,5.6
2017-07-20T04:33:09.089Z,7.2
2017-07-20T04:33:49.429Z,8.0
2017-07-20T04:34:29.575Z,5.6
2017-07-20T04:35:09.714Z,4.0
2017-07-20T04:35:49.950Z,6.4
2017-07-20T04:36:30.392Z,5.6
2017-07-20T04:37:10.330Z,3.2
2017-07-20T04:37:50.382Z,1.6
2017-07-20T04:38:30.618Z,0.8
2017-07-20T04:39:11.255Z,0.8
2017-07-20T04:39:51.491Z,5.6
2017-07-20T04:40:31.729Z,7.2
2017-07-20T04:41:11.668Z,7.2
2017-07-20T04:41:51.909Z,5.6
2017-07-20T04:42:32.054Z,6.4
2017-07-20T04:43:12.595Z,3.2
2017-07-20T04:43:53.031Z,1.6
2017-07-20T04:44:33.068Z,4.0
2017-07-20T04:45:13.508Z,3.2
2017-07-20T04:45:53.951Z,2.4
2017-07-20T04:46:34.285Z,4.0
2017-07-20T04:47:14.437Z,1.6
2017-07-20T04:47:54.772Z,2.4
2017-07-20T04:48:35.214Z,3.2
2017-07-20T04:49:15.850Z,3.2
2017-07-20T04:49:56.192Z,3.2
2017-07-20T04:50:36.328Z,1.6
2017-07-20T04:51:16.604Z,1.6
2017-07-20T04:51:56.542Z,1.6
2017-07-20T04:52:36.595Z,2.4
2017-07-20T04:53:16.924Z,3.2
2017-07-20T04:53:57.465Z,4.0
2017-07-20T04:54:37.601Z,3.2
2017-07-20T04:55:17.841Z,3.2
2017-07-20T04:55:58.182Z,4.8
2017-07-20T04:56:38.526Z,5.6
2017-07-20T04:57:18.566Z,5.6
2017-07-20T04:57:58.707Z,6.4
2017-07-20T04:58:39.043Z,6.4
2017-07-20T04:59:19.388Z,7.2
2017-07-20T04:59:59.926Z,4.8
2017-07-20T05:00:40.262Z,8.8
2017-07-20T05:01:20.509Z,5.6
2017-07-20T05:02:01.128Z,5.6
2017-07-20T05:02:41.470Z,4.0
2017-07-20T05:03:21.404Z,4.8
2017-07-20T05:04:02.143Z,5.6
2017-07-20T05:04:42.291Z,8.0
2017-07-20T05:05:22.432Z,6.4
2017-07-20T05:06:02.767Z,7.2
2017-07-20T05:06:43.097Z,6.4
2017-07-20T05:07:23.140Z,7.2
2017-07-20T05:08:03.281Z,8.0
2017-07-20T05:08:43.309Z,6.4
2017-07-20T05:09:23.550Z,9.6
2017-07-20T05:10:03.686Z,4.8
2017-07-20T05:10:44.130Z,4.8
2017-07-20T05:11:23.966Z,5.6
2017-07-20T05:12:03.910Z,5.6
2017-07-20T05:12:44.352Z,4.0
2017-07-20T05:13:24.587Z,5.6
2017-07-20T05:14:04.834Z,6.4
2017-07-20T05:14:45.082Z,4.8
2017-07-20T05:15:25.522Z,4.8
2017-07-20T05:16:06.162Z,3.2
2017-07-20T05:16:47.108Z,4.8
2017-07-20T05:17:27.644Z,7.2
2017-07-20T05:18:07.582Z,5.6
2017-07-20T05:18:47.532Z,4.8
2017-07-20T05:19:27.265Z,4.8
2017-07-20T05:20:07.504Z,5.6
2017-07-20T05:20:48.043Z,3.2
2017-07-20T05:21:28.185Z,5.6
2017-07-20T05:22:08.226Z,4.8
2017-07-20T05:22:50.472Z,4.8
2017-07-20T05:23:31.112Z,7.2
2017-07-20T05:24:11.246Z,8.0
2017-07-20T05:24:51.594Z,7.2
2017-07-20T05:25:31.636Z,4.8
2017-07-20T05:26:11.880Z,9.6
2017-07-20T05:26:52.124Z,12.8
2017-07-20T05:27:32.458Z,8.0
2017-07-20T05:28:12.598Z,8.8
2017-07-20T05:28:53.036Z,9.6
2017-07-20T05:29:33.392Z,6.4
2017-07-20T05:30:13.524Z,8.0
2017-07-20T05:30:53.760Z,6.4
2017-07-20T05:31:34.011Z,8.0
2017-07-20T05:32:14.351Z,6.4
2017-07-20T05:32:54.487Z,11.2
2017-07-20T05:33:34.727Z,10.4
2017-07-20T05:34:15.068Z,7.2
2017-07-20T05:34:55.001Z,8.0
2017-07-20T05:35:35.141Z,5.6
2017-07-20T05:36:15.871Z,4.8
2017-07-20T05:36:56.006Z,5.6
2017-07-20T05:37:36.347Z,6.4
2017-07-20T05:38:16.382Z,2.4
2017-07-20T05:38:56.823Z,2.4
2017-07-20T05:39:36.762Z,2.4
2017-07-20T05:40:16.903Z,5.6
2017-07-20T05:40:57.035Z,4.8
2017-07-20T05:41:36.791Z,5.6
2017-07-20T05:42:17.537Z,5.6
2017-07-20T05:42:58.182Z,4.8
2017-07-20T05:43:38.312Z,2.4
2017-07-20T05:44:18.051Z,4.0
2017-07-20T05:44:58.289Z,5.6
2017-07-20T05:45:38.426Z,10.4
2017-07-20T05:46:18.868Z,11.2
2017-07-20T05:46:59.222Z,8.0
2017-07-20T05:47:39.255Z,5.6
2017-07-20T05:48:19.399Z,4.8
2017-07-20T05:48:59.641Z,4.8
2017-07-20T05:49:39.906Z,8.0
2017-07-20T05:50:20.121Z,4.8
2017-07-20T05:50:59.963Z,10.4
2017-07-20T05:51:39.809Z,7.2
2017-07-20T05:52:19.843Z,5.6
2017-07-20T05:53:00.387Z,7.2
2017-07-20T05:53:40.618Z,6.4
2017-07-20T05:54:20.637Z,8.8
2017-07-20T05:55:00.686Z,10.4
2017-07-20T05:55:40.719Z,4.8
2017-07-20T05:56:20.967Z,11.2
2017-07-20T05:57:01.212Z,6.4
2017-07-20T05:57:41.957Z,5.6
2017-07-20T05:58:21.995Z,6.4
2017-07-20T05:59:02.133Z,6.4
2017-07-20T05:59:42.276Z,4.8
2017-07-20T06:00:22.420Z,6.4
2017-07-20T06:01:02.758Z,5.6
2017-07-20T06:01:43.101Z,4.0
2017-07-20T06:02:23.651Z,3.2
2017-07-20T06:03:03.785Z,4.0
2017-07-20T06:03:44.024Z,4.8
2017-07-20T06:04:24.167Z,3.2
2017-07-20T06:05:04.611Z,4.8
2017-07-20T06:05:45.150Z,4.8
2017-07-20T06:06:25.490Z,8.8
2017-07-20T06:07:05.934Z,4.8
2017-07-20T06:07:45.972Z,4.0
2017-07-20T06:08:26.112Z,4.0
2017-07-20T06:09:06.253Z,6.4
2017-07-20T06:09:46.596Z,6.4
2017-07-20T06:10:27.034Z,9.6
2017-07-20T06:11:07.475Z,8.8
2017-07-20T06:11:48.227Z,3.2
2017-07-20T06:12:28.661Z,6.4
2017-07-20T06:13:08.702Z,3.2
2017-07-20T06:13:48.954Z,7.2
2017-07-20T06:14:29.197Z,4.8
2017-07-20T06:15:09.137Z,2.4
2017-07-20T06:15:49.574Z,1.6
2017-07-20T06:16:30.312Z,1.6
2017-07-20T06:17:10.049Z,2.4
2017-07-20T06:17:50.289Z,4.0
2017-07-20T06:18:30.528Z,4.8
2017-07-20T06:19:10.774Z,2.4
2017-07-20T06:19:51.016Z,4.8
2017-07-20T06:20:31.353Z,3.2
2017-07-20T06:21:11.401Z,3.2
2017-07-20T06:21:51.734Z,5.6
2017-07-20T06:22:32.077Z,6.4
2017-07-20T06:23:12.721Z,6.4
2017-07-20T06:23:53.165Z,5.6
2017-07-20T06:24:33.607Z,3.2
2017-07-20T06:25:14.048Z,3.2
2017-07-20T06:25:54.397Z,1.6
2017-07-20T06:26:34.431Z,3.2
2017-07-20T06:27:14.873Z,1.6
2017-07-20T06:27:55.211Z,1.6
2017-07-20T06:28:35.660Z,4.0
2017-07-20T06:29:16.200Z,1.6
2017-07-20T06:29:56.735Z,2.4
2017-07-20T06:30:37.283Z,3.2
2017-07-20T06:31:17.720Z,4.0
2017-07-20T06:31:57.969Z,3.2
2017-07-20T06:32:38.206Z,2.4
2017-07-20T06:33:19.148Z,3.2
2017-07-20T06:33:59.386Z,2.4
2017-07-20T06:34:39.832Z,4.0
2017-07-20T06:35:20.175Z,5.6
2017-07-20T06:36:00.416Z,2.4
2017-07-20T06:36:40.857Z,3.2
2017-07-20T06:37:20.894Z,3.2
2017-07-20T06:38:00.739Z,3.2
2017-07-20T06:38:41.077Z,4.8
2017-07-20T06:39:21.422Z,4.0
2017-07-20T06:40:01.665Z,3.2
2017-07-20T06:40:42.205Z,1.6
2017-07-20T06:41:22.346Z,4.8
2017-07-20T06:42:02.691Z,3.2
2017-07-20T06:42:42.825Z,7.2
2017-07-20T06:43:23.065Z,8.0
2017-07-20T06:44:03.505Z,5.6
2017-07-20T06:44:43.955Z,4.0
2017-07-20T06:45:24.096Z,4.0
2017-07-20T06:46:04.434Z,4.8
2017-07-20T06:46:44.881Z,5.6
2017-07-20T06:47:25.027Z,4.8
2017-07-20T06:48:04.975Z,2.4
2017-07-20T06:48:44.919Z,3.2
2017-07-20T06:49:25.190Z,1.6
2017-07-20T06:50:05.207Z,2.4
2017-07-20T06:50:45.352Z,4.0
2017-07-20T06:51:25.995Z,3.2
2017-07-20T06:52:06.131Z,2.4
2017-07-20T06:52:46.275Z,2.4
2017-07-20T06:53:28.919Z,3.2
2017-07-20T06:54:09.169Z,2.4
2017-07-20T06:54:49.405Z,1.6
2017-07-20T06:55:29.960Z,3.2
2017-07-20T06:56:10.400Z,4.8
2017-07-20T06:56:50.952Z,3.2
2017-07-20T06:57:31.504Z,6.4
2017-07-20T06:58:11.550Z,4.8
2017-07-20T06:58:52.101Z,5.6
2017-07-20T06:59:32.441Z,9.6
2017-07-20T07:00:12.588Z,4.0
2017-07-20T07:00:53.737Z,4.0
2017-07-20T07:01:33.977Z,7.2
2017-07-20T07:02:14.418Z,4.8
2017-07-20T07:02:54.873Z,6.4
2017-07-20T07:05:51.520Z,4.0
2017-07-20T07:07:54.945Z,4.8
2017-07-20T07:09:57.953Z,4.8
2017-07-20T07:12:01.474Z,2.4
2017-07-20T07:12:42.025Z,4.8
2017-07-20T07:13:22.046Z,4.0
2017-07-20T07:14:02.176Z,3.2
2017-07-20T07:14:42.498Z,8.0
2017-07-20T07:15:22.865Z,6.4
2017-07-20T07:16:03.287Z,7.2
2017-07-20T07:16:43.419Z,5.6
2017-07-20T07:17:23.737Z,4.8
2017-07-20T07:18:04.263Z,3.2
2017-07-20T07:18:44.382Z,1.6
2017-07-20T07:19:24.512Z,6.4
2017-07-20T07:20:04.648Z,6.4
2017-07-20T07:20:44.662Z,4.0
2017-07-20T07:21:24.491Z,3.2
2017-07-20T07:22:05.019Z,4.8
2017-07-20T07:22:45.251Z,2.4
2017-07-20T07:23:25.584Z,5.6
2017-07-20T07:24:05.697Z,4.0
2017-07-20T07:24:45.823Z,3.2
2017-07-20T07:25:26.054Z,4.8
2017-07-20T07:26:06.485Z,4.8
2017-07-20T07:26:47.118Z,3.2
2017-07-20T07:27:27.148Z,5.6
2017-07-20T07:28:07.181Z,5.6
2017-07-20T07:28:47.518Z,4.8
2017-07-20T07:29:27.758Z,9.6
2017-07-20T07:30:08.294Z,3.2
2017-07-20T07:30:49.030Z,3.2
2017-07-20T07:31:29.081Z,4.8
2017-07-20T07:32:09.915Z,4.0
2017-07-20T07:32:50.040Z,5.6
2017-07-20T07:33:30.375Z,7.2
2017-07-20T07:34:10.415Z,12.0
2017-07-20T07:34:50.847Z,8.0
2017-07-20T07:35:30.883Z,4.0
2017-07-20T07:36:11.028Z,5.6
2017-07-20T07:36:51.470Z,6.4
2017-07-20T07:37:31.897Z,9.6
2017-07-20T07:38:11.838Z,4.0
2017-07-20T07:38:52.061Z,5.6
2017-07-20T07:39:32.294Z,5.6
2017-07-20T07:40:12.429Z,2.4
2017-07-20T07:40:52.555Z,6.4
2017-07-20T07:41:32.896Z,10.4
2017-07-20T07:42:12.833Z,8.0
2017-07-20T07:42:53.268Z,7.2
2017-07-20T07:43:33.408Z,9.6
2017-07-20T07:44:13.839Z,6.4
2017-07-20T07:44:54.677Z,9.6
2017-07-20T07:45:34.709Z,8.8
2017-07-20T07:46:14.754Z,5.6
2017-07-20T07:46:54.988Z,8.8
2017-07-20T07:47:35.322Z,7.2
2017-07-20T07:48:15.561Z,2.4
2017-07-20T07:48:55.796Z,2.4
2017-07-20T07:49:36.238Z,6.4
2017-07-20T07:50:16.367Z,9.6
2017-07-20T07:50:56.515Z,6.4
2017-07-20T07:51:36.848Z,6.4
2017-07-20T07:52:17.190Z,4.0
2017-07-20T07:52:57.532Z,4.0
2017-07-20T07:53:37.968Z,4.0
2017-07-20T07:54:17.917Z,4.8
2017-07-20T07:54:58.153Z,2.4
2017-07-20T07:55:38.479Z,2.4
2017-07-20T07:56:19.221Z,6.4
2017-07-20T07:56:59.464Z,6.4
2017-07-20T07:57:39.399Z,2.4
2017-07-20T07:58:20.130Z,8.0
2017-07-20T07:59:00.280Z,4.8
2017-07-20T07:59:40.112Z,4.0
2017-07-20T08:00:20.654Z,8.0
2017-07-20T08:01:00.788Z,7.2
2017-07-20T08:01:40.922Z,3.2
2017-07-20T08:02:21.054Z,4.0
2017-07-20T08:03:01.090Z,4.8
2017-07-20T08:03:41.327Z,8.0
2017-07-20T08:04:21.755Z,8.8
2017-07-20T08:05:01.999Z,10.4
2017-07-20T08:05:42.632Z,13.6
2017-07-20T08:06:23.169Z,13.6
2017-07-20T08:07:03.710Z,10.4
2017-07-20T08:07:44.144Z,5.6
2017-07-20T08:08:24.394Z,12.0
2017-07-20T08:09:04.337Z,9.6
2017-07-20T08:09:45.102Z,11.2
2017-07-20T08:10:25.230Z,7.2
2017-07-20T08:11:05.369Z,5.6
2017-07-20T08:11:45.609Z,8.0
2017-07-20T08:12:25.953Z,11.2
2017-07-20T08:13:06.184Z,7.2
2017-07-20T08:13:46.219Z,6.4
2017-07-20T08:14:26.956Z,6.4
2017-07-20T08:15:07.586Z,4.0
2017-07-20T08:15:48.225Z,4.0
2017-07-20T08:16:28.558Z,6.4
2017-07-20T08:17:08.796Z,4.0
2017-07-20T08:17:48.849Z,3.2
2017-07-20T08:18:29.244Z,3.2
2017-07-20T08:19:10.423Z,2.4
2017-07-20T08:19:51.642Z,4.8
2017-07-20T08:20:32.047Z,4.8
2017-07-20T08:21:12.385Z,4.0
2017-07-20T08:21:52.619Z,2.4
2017-07-20T08:22:32.555Z,5.6
2017-07-20T08:23:13.088Z,5.6
2017-07-20T08:23:53.422Z,2.4
2017-07-20T08:24:34.056Z,4.8
2017-07-20T08:25:14.092Z,1.6
2017-07-20T08:25:54.626Z,5.6
2017-07-20T08:26:35.462Z,4.0
2017-07-20T08:27:15.408Z,1.6
2017-07-20T08:27:55.825Z,4.8
2017-07-20T08:28:36.266Z,4.0
2017-07-20T08:29:16.693Z,4.0
2017-07-20T08:29:56.753Z,8.0
2017-07-20T08:30:36.521Z,8.0
2017-07-20T08:31:16.446Z,7.2
2017-07-20T08:31:56.783Z,16.8
2017-07-20T08:32:37.031Z,11.2
2017-07-20T08:33:17.366Z,8.0
2017-07-20T08:33:57.904Z,11.2
2017-07-20T08:34:38.066Z,12.8
2017-07-20T08:35:18.200Z,9.6
2017-07-20T08:35:58.341Z,10.4
2017-07-20T08:36:38.594Z,5.6
2017-07-20T08:37:18.817Z,4.8
2017-07-20T08:37:59.057Z,7.2
2017-07-20T08:38:39.195Z,4.8
2017-07-20T08:39:19.542Z,8.0
2017-07-20T08:40:00.104Z,4.0
2017-07-20T08:40:40.747Z,4.0
2017-07-20T08:41:20.828Z,5.6
2017-07-20T08:42:01.143Z,8.0
2017-07-20T08:42:41.088Z,4.8
2017-07-20T08:43:21.525Z,5.6
2017-07-20T08:44:01.473Z,8.8
2017-07-20T08:44:41.505Z,9.6
2017-07-20T08:45:21.636Z,6.4
2017-07-20T08:46:02.085Z,3.2
2017-07-20T08:46:42.326Z,8.8
2017-07-20T08:47:22.470Z,5.6
2017-07-20T08:48:02.524Z,5.6
2017-07-20T08:48:42.678Z,8.0
2017-07-20T08:49:23.113Z,5.6
2017-07-20T08:50:03.448Z,7.2
2017-07-20T08:50:43.888Z,7.2
2017-07-20T08:51:24.025Z,5.6
2017-07-20T08:52:03.971Z,7.2
2017-07-20T08:52:43.825Z,4.8
2017-07-20T08:53:24.070Z,4.8
2017-07-20T08:54:04.606Z,5.6
2017-07-20T08:54:44.758Z,8.0
2017-07-20T08:55:24.918Z,12.8
2017-07-20T08:56:05.510Z,7.2
2017-07-20T08:56:45.868Z,8.8
2017-07-20T08:57:25.899Z,4.8
2017-07-20T08:58:06.040Z,3.2
2017-07-20T08:58:46.396Z,8.8
2017-07-20T08:59:26.827Z,8.8
2017-07-20T09:00:06.979Z,5.6
2017-07-20T09:00:49.631Z,8.8
2017-07-20T09:01:29.880Z,10.4
2017-07-20T09:02:10.418Z,6.4
2017-07-20T09:02:50.460Z,8.8
2017-07-20T09:03:30.806Z,5.6
2017-07-20T09:04:10.950Z,4.0
2017-07-20T09:04:51.096Z,5.6
2017-07-20T09:05:31.138Z,7.2
2017-07-20T09:06:10.994Z,4.0
2017-07-20T09:06:51.043Z,6.4
2017-07-20T09:07:31.190Z,12.0
2017-07-20T09:08:12.134Z,11.2
2017-07-20T09:08:52.241Z,8.0
2017-07-20T09:09:32.380Z,8.8
2017-07-20T09:10:12.621Z,8.8
2017-07-20T09:10:52.760Z,8.8
2017-07-20T09:11:32.803Z,5.6
2017-07-20T09:12:13.148Z,15.2
2017-07-20T09:12:53.496Z,13.6
2017-07-20T09:13:33.932Z,8.0
2017-07-20T09:14:14.310Z,8.0
2017-07-20T09:14:54.744Z,10.4
2017-07-20T09:15:35.003Z,6.4
2017-07-20T09:16:15.043Z,6.4
2017-07-20T09:16:55.585Z,5.6
2017-07-20T09:17:36.222Z,4.8
2017-07-20T09:18:16.663Z,6.4
2017-07-20T09:18:56.909Z,11.2
2017-07-20T09:19:37.250Z,11.2